Sitka, South Dakota
Current Conditions -  °F | °C
As of 7:52 AM on Wednesday 26 Nov 2014 (Local Time) from KMBG Reporting Station
Overcast Overcast  
Wind Chill:   Ceiling: 2500
Heat Index: 13°   Visibility: 10mi
Dew Point:   Wind: 6mph
Humidity: 81%   Direction: 80°E
Pressure: 30.26"   Gusts: NA
Location:  45.4184°N, 100.09°W
Report Text: KMBG 261352Z AUTO 08005KT 10SM OVC025 M11/M13 A3026 RMK AO2 SLP273 T11061133
Loading
Personal Weather Stations






























Interactive Weather Map New forecast layout! Learn more

10-Day Weather Forecast

Advertisements
Track Severe Weather on mobile